Time;durP1;ratioP1;P1;durP2;ratioP2;P2;SDS_P1;SDS_P2;PMS_P1;PMS_P2;Temp;Humidity;BMP_temperature;BMP_pressure;BME280_temperature;BME280_humidity;BME280_pressure;Samples;Min_cycle;Max_cycle;Signal;HPM_P1;HPM_P2
2022/04/12 00:02:33;;;;;;;;;;;9.50;1.00;;;;;;10369977;28;84845;-49
2022/04/12 00:07:33;;;;;;;;;;;9.50;1.00;;;;;;10369877;28;84213;-49
2022/04/12 00:12:35;;;;;;;;;;;9.50;1.00;;;;;;10352775;28;86133;-51
2022/04/12 00:22:56;;;;;;;;;;;9.50;1.00;;;;;;10370214;28;84867;-49
2022/04/12 00:27:57;;;;;;;;;;;9.50;1.00;;;;;;10369135;28;84148;-49
2022/04/12 00:32:58;;;;;;;;;;;9.50;1.00;;;;;;10351828;28;87243;-50
2022/04/12 00:37:58;;;;;;;;;;;9.40;1.00;;;;;;10350166;28;85874;-49
2022/04/12 00:43:02;;;;;;;;;;;9.30;1.00;;;;;;10370010;28;84206;-46
2022/04/12 00:48:03;;;;;;;;;;;9.30;1.00;;;;;;10368480;28;83993;-51
2022/04/12 00:53:04;;;;;;;;;;;9.20;1.00;;;;;;10369460;28;84740;-51
2022/04/12 00:58:07;;;;;;;;;;;9.10;17.90;;;;;;10369337;28;85105;-49
2022/04/12 01:03:08;;;;;;;;;;;9.10;99.90;;;;;;10351547;28;84273;-49
2022/04/12 01:08:08;;;;;;;;;;;9.00;99.90;;;;;;10368243;28;84163;-50
2022/04/12 01:13:09;;;;;;;;;;;9.00;99.90;;;;;;10369079;28;85222;-51
2022/04/12 01:18:10;;;;;;;;;;;9.00;99.90;;;;;;10368191;28;84887;-49
2022/04/12 01:23:24;;;;;;;;;;;8.90;99.90;;;;;;10369399;28;84252;-48
2022/04/12 01:28:25;;;;;;;;;;;8.80;99.90;;;;;;10324750;28;84969;-50
2022/04/12 01:33:25;;;;;;;;;;;8.80;1.00;;;;;;10327485;28;84225;-52
2022/04/12 01:38:28;;;;;;;;;;;8.80;1.00;;;;;;10325933;28;84987;-52
2022/04/12 01:43:29;;;;;;;;;;;8.70;1.00;;;;;;10342592;28;86990;-49
2022/04/12 01:48:29;;;;;;;;;;;8.70;1.00;;;;;;10372970;28;84136;-53
2022/04/12 01:53:30;;;;;;;;;;;8.70;1.00;;;;;;10381729;28;84756;-49
2022/04/12 01:58:32;;;;;;;;;;;8.60;1.00;;;;;;10380130;28;84224;-47
2022/04/12 02:03:33;;;;;;;;;;;8.60;1.00;;;;;;10381146;28;84044;-48
2022/04/12 02:08:34;;;;;;;;;;;8.50;1.00;;;;;;10380434;28;84078;-48
2022/04/12 02:13:35;;;;;;;;;;;8.60;1.00;;;;;;10362478;28;86120;-48
2022/04/12 02:18:35;;;;;;;;;;;8.40;1.00;;;;;;10394922;22;84668;-50
2022/04/12 02:23:36;;;;;;;;;;;8.40;1.00;;;;;;10380801;28;86148;-48
2022/04/12 02:28:37;;;;;;;;;;;8.30;1.00;;;;;;10380396;28;84412;-52
2022/04/12 02:33:37;;;;;;;;;;;8.30;1.00;;;;;;10390749;28;84824;-48
2022/04/12 02:38:38;;;;;;;;;;;8.30;1.00;;;;;;10376269;28;84790;-54
2022/04/12 02:43:38;;;;;;;;;;;8.30;1.00;;;;;;10382168;28;84477;-53
2022/04/12 02:48:39;;;;;;;;;;;8.20;1.00;;;;;;10362642;28;84987;-50
2022/04/12 02:53:39;;;;;;;;;;;8.20;1.00;;;;;;10381155;28;84695;-51
2022/04/12 02:58:40;;;;;;;;;;;8.10;1.00;;;;;;10377283;28;84100;-48
2022/04/12 03:03:40;;;;;;;;;;;8.10;1.00;;;;;;10374127;28;85082;-51
2022/04/12 03:08:41;;;;;;;;;;;8.00;1.00;;;;;;10373802;28;84328;-50
2022/04/12 03:13:41;;;;;;;;;;;8.10;1.00;;;;;;10374853;28;84144;-52
2022/04/12 03:18:42;;;;;;;;;;;8.00;1.00;;;;;;10372747;28;84022;-52
2022/04/12 03:23:43;;;;;;;;;;;8.00;1.00;;;;;;10355579;28;86829;-53
2022/04/12 03:28:43;;;;;;;;;;;7.90;1.00;;;;;;10368821;28;84694;-50
2022/04/12 03:33:46;;;;;;;;;;;7.90;6.30;;;;;;10370931;28;86077;-53
2022/04/12 03:38:49;;;;;;;;;;;7.90;26.40;;;;;;10372642;28;84946;-53
2022/04/12 03:43:50;;;;;;;;;;;7.90;1.00;;;;;;10373765;28;85111;-49
2022/04/12 03:48:51;;;;;;;;;;;7.90;45.80;;;;;;10371100;28;84221;-51
2022/04/12 03:53:51;;;;;;;;;;;7.90;73.40;;;;;;10373288;28;85313;-53
2022/04/12 03:58:52;;;;;;;;;;;7.90;36.60;;;;;;10372397;28;84912;-52
2022/04/12 04:03:52;;;;;;;;;;;7.90;56.10;;;;;;10367766;28;84816;-51
2022/04/12 04:08:53;;;;;;;;;;;7.80;99.90;;;;;;10375141;28;85263;-49
2022/04/12 04:13:54;;;;;;;;;;;7.90;93.80;;;;;;10367945;28;84912;-52
2022/04/12 04:18:54;;;;;;;;;;;7.90;58.30;;;;;;10367594;28;84849;-50
2022/04/12 04:23:55;;;;;;;;;;;7.90;53.60;;;;;;10368304;28;88866;-49
2022/04/12 04:28:55;;;;;;;;;;;7.90;75.90;;;;;;10367608;28;84189;-51
2022/04/12 04:33:56;;;;;;;;;;;7.90;75.20;;;;;;10369810;28;84885;-49
2022/04/12 04:38:57;;;;;;;;;;;7.90;96.20;;;;;;10366315;28;85312;-48
2022/04/12 04:43:57;;;;;;;;;;;7.90;99.90;;;;;;10367397;28;84165;-49
2022/04/12 04:48:58;;;;;;;;;;;7.80;99.90;;;;;;10348371;28;84749;-48
2022/04/12 04:53:59;;;;;;;;;;;7.80;99.90;;;;;;10350071;28;86450;-52
2022/04/12 04:59:00;;;;;;;;;;;7.90;99.90;;;;;;10363742;28;84424;-52
2022/04/12 05:04:00;;;;;;;;;;;7.90;99.90;;;;;;10366710;28;84868;-53
2022/04/12 05:09:01;;;;;;;;;;;7.90;99.90;;;;;;10366006;28;84233;-50
2022/04/12 05:14:01;;;;;;;;;;;7.90;99.90;;;;;;10366176;28;84567;-52
2022/04/12 05:19:02;;;;;;;;;;;8.00;99.90;;;;;;10366792;28;84539;-52
2022/04/12 05:24:04;;;;;;;;;;;8.10;99.90;;;;;;10366743;28;84797;-52
2022/04/12 05:29:05;;;;;;;;;;;8.00;98.90;;;;;;10346806;28;84971;-53
2022/04/12 05:34:06;;;;;;;;;;;8.10;99.90;;;;;;10345150;28;86360;-49
2022/04/12 05:39:06;;;;;;;;;;;8.10;62.20;;;;;;10366733;28;84334;-51
2022/04/12 05:44:07;;;;;;;;;;;8.10;59.60;;;;;;10367178;28;84936;-51
2022/04/12 05:49:07;;;;;;;;;;;8.20;38.60;;;;;;10347644;28;84296;-53
2022/04/12 05:54:08;;;;;;;;;;;8.30;44.60;;;;;;10367336;28;84942;-52
2022/04/12 05:59:09;;;;;;;;;;;8.40;29.90;;;;;;10366266;28;84893;-50
2022/04/12 06:04:09;;;;;;;;;;;8.50;7.90;;;;;;10346208;28;84638;-50
2022/04/12 06:09:10;;;;;;;;;;;8.70;1.00;;;;;;10380697;28;84011;-54
2022/04/12 06:14:11;;;;;;;;;;;8.90;1.00;;;;;;10385030;28;85340;-53
2022/04/12 06:19:11;;;;;;;;;;;9.10;1.00;;;;;;10380341;28;84190;-51
2022/04/12 06:24:12;;;;;;;;;;;9.40;1.00;;;;;;10381147;28;84892;-48
2022/04/12 06:29:12;;;;;;;;;;;9.60;1.00;;;;;;10366173;28;84993;-52
2022/04/12 06:34:13;;;;;;;;;;;10.00;1.00;;;;;;10367137;28;84265;-50
2022/04/12 06:39:13;;;;;;;;;;;10.20;1.00;;;;;;10369745;28;84332;-53
2022/04/12 06:44:14;;;;;;;;;;;10.50;99.90;;;;;;10366376;28;85082;-55
2022/04/12 06:49:14;;;;;;;;;;;10.80;99.90;;;;;;10380375;28;84442;-53
2022/04/12 06:54:15;;;;;;;;;;;11.10;1.00;;;;;;10357505;28;85855;-51
2022/04/12 06:59:16;;;;;;;;;;;11.50;1.00;;;;;;10373168;28;84776;-53
2022/04/12 07:04:16;;;;;;;;;;;12.20;49.30;;;;;;10374521;28;84783;-51
2022/04/12 07:09:20;;;;;;;;;;;12.40;1.00;;;;;;10372311;28;84142;-50
2022/04/12 07:14:20;;;;;;;;;;;13.10;1.00;;;;;;10373415;28;85541;-47
2022/04/12 07:19:21;;;;;;;;;;;13.90;1.00;;;;;;10372168;28;84928;-50
2022/04/12 07:24:22;;;;;;;;;;;14.00;99.90;;;;;;10373129;28;85325;-47
2022/04/12 07:29:22;;;;;;;;;;;14.60;77.90;;;;;;10372659;28;84445;-49
2022/04/12 07:34:23;;;;;;;;;;;14.40;99.90;;;;;;10373043;28;84097;-50
2022/04/12 07:39:24;;;;;;;;;;;14.10;1.00;;;;;;10376862;28;85610;-52
2022/04/12 07:44:24;;;;;;;;;;;14.30;1.00;;;;;;10374532;28;84101;-53
2022/04/12 07:49:26;;;;;;;;;;;14.90;99.90;;;;;;10372839;28;86322;-49
2022/04/12 07:54:26;;;;;;;;;;;15.60;1.00;;;;;;10375477;28;84872;-54
2022/04/12 07:59:27;;;;;;;;;;;16.30;99.90;;;;;;10373142;28;84152;-49
2022/04/12 08:04:28;;;;;;;;;;;16.90;63.40;;;;;;10354029;28;84299;-49
2022/04/12 08:09:28;;;;;;;;;;;17.20;1.00;;;;;;10371679;28;84910;-49
2022/04/12 08:14:29;;;;;;;;;;;17.60;1.00;;;;;;10371652;28;84124;-50
2022/04/12 08:19:29;;;;;;;;;;;18.10;1.00;;;;;;10405310;22;85614;-54
2022/04/12 08:24:30;;;;;;;;;;;18.60;99.90;;;;;;10412817;28;84145;-50
2022/04/12 08:29:30;;;;;;;;;;;19.40;99.90;;;;;;10369616;28;85154;-53
2022/04/12 08:34:31;;;;;;;;;;;19.00;99.90;;;;;;10369122;28;84290;-54
2022/04/12 08:39:32;;;;;;;;;;;19.90;99.90;;;;;;10359076;28;84128;-55
2022/04/12 08:44:33;;;;;;;;;;;19.70;99.90;;;;;;10311697;28;85018;-53
2022/04/12 08:49:35;;;;;;;;;;;20.70;99.90;;;;;;10331892;28;84899;-51
2022/04/12 08:54:36;;;;;;;;;;;21.50;1.00;;;;;;10328534;28;84882;-57
2022/04/12 08:59:37;;;;;;;;;;;21.50;1.00;;;;;;10326755;28;84864;-54
2022/04/12 09:04:38;;;;;;;;;;;21.40;1.00;;;;;;10311040;28;84812;-59
2022/04/12 09:09:39;;;;;;;;;;;21.30;1.00;;;;;;10328225;28;84122;-56
2022/04/12 09:14:41;;;;;;;;;;;22.00;1.00;;;;;;10329352;28;84290;-53
2022/04/12 09:19:51;;;;;;;;;;;22.60;1.00;;;;;;10339288;28;84752;-56
2022/04/12 09:24:53;;;;;;;;;;;23.00;1.00;;;;;;10391210;28;85023;-51
2022/04/12 09:29:54;;;;;;;;;;;23.50;1.00;;;;;;10394604;28;84227;-48
2022/04/12 09:34:56;;;;;;;;;;;23.80;1.00;;;;;;10377284;28;84940;-52
2022/04/12 09:40:00;;;;;;;;;;;23.60;1.00;;;;;;10356198;28;86210;-54
2022/04/12 09:45:04;;;;;;;;;;;23.90;1.00;;;;;;10382587;28;87029;-48
2022/04/12 09:50:05;;;;;;;;;;;23.90;1.00;;;;;;10344714;28;85744;-49
2022/04/12 09:55:08;;;;;;;;;;;24.20;1.00;;;;;;10326669;28;84180;-54
2022/04/12 10:00:09;;;;;;;;;;;24.60;1.00;;;;;;10332130;28;84109;-51
2022/04/12 10:05:10;;;;;;;5.35;3.13;;;25.00;1.00;;;;;;10366920;28;85166;-53
2022/04/12 10:10:11;;;;;;;;;;;25.10;99.90;;;;;;10393103;28;84393;-52
2022/04/12 10:15:11;;;;;;;;;;;24.60;99.90;;;;;;10409719;28;84790;-55
2022/04/12 10:20:12;;;;;;;;;;;24.90;99.90;;;;;;10358296;28;84975;-52
2022/04/12 10:25:20;;;;;;;;;;;24.70;99.90;;;;;;10371982;28;84215;-53
2022/04/12 10:30:22;;;;;;;;;;;24.90;99.90;;;;;;10371440;28;85104;-50
2022/04/12 10:35:23;;;;;;;;;;;25.00;99.90;;;;;;10344716;28;85009;-52
2022/04/12 10:40:24;;;;;;;;;;;25.10;99.90;;;;;;10362267;28;84475;-51
2022/04/12 10:45:31;;;;;;;;;;;26.00;99.90;;;;;;10373866;28;85095;-51
2022/04/12 10:50:41;;;;;;;;;;;25.70;99.90;;;;;;10373807;28;84869;-51
2022/04/12 10:55:43;;;;;;;;;;;26.20;99.90;;;;;;10373643;28;84839;-48
2022/04/12 11:00:45;;;;;;;;;;;26.40;99.90;;;;;;10372657;28;84873;-53
2022/04/12 11:05:46;;;;;;;;;;;25.90;99.90;;;;;;10367681;28;85355;-50
2022/04/12 11:10:47;;;;;;;;;;;26.80;99.90;;;;;;10333880;28;84857;-50
2022/04/12 11:15:55;;;;;;;;;;;26.70;99.90;;;;;;10382020;28;85488;-51
2022/04/12 11:20:59;;;;;;;;;;;27.00;99.90;;;;;;10369720;28;85531;-50
2022/04/12 11:26:20;;;;;;;;;;;27.00;99.90;;;;;;10346102;28;84690;-53
2022/04/12 11:31:21;;;;;;;;;;;27.00;99.90;;;;;;10372080;28;85048;-53
2022/04/12 11:36:21;;;;;;;;;;;28.10;99.90;;;;;;10366936;28;84222;-53
2022/04/12 11:41:22;;;;;;;;;;;27.70;99.90;;;;;;10389249;28;84219;-53
2022/04/12 11:46:22;;;;;;;;;;;27.60;99.90;;;;;;10365001;28;84256;-53
2022/04/12 11:51:23;;;;;;;;;;;27.20;99.90;;;;;;10382456;28;84604;-54
2022/04/12 11:56:26;;;;;;;;;;;26.90;99.90;;;;;;10395675;28;84254;-52
2022/04/12 12:01:30;;;;;;;;;;;26.50;99.90;;;;;;10398186;28;84978;-56
2022/04/12 12:06:31;;;;;;;;;;;26.90;99.90;;;;;;10412855;28;84151;-55
2022/04/12 12:11:31;;;;;;;;;;;27.40;99.90;;;;;;10367588;28;84352;-53
2022/04/12 12:16:32;;;;;;;;;;;27.00;99.90;;;;;;10384310;28;84363;-51
2022/04/12 12:21:32;;;;;;;;;;;27.40;99.90;;;;;;10371272;28;84134;-49
2022/04/12 12:26:33;;;;;;;;;;;28.00;99.90;;;;;;10370159;28;84920;-50
2022/04/12 12:31:43;;;;;;;;;;;27.70;99.90;;;;;;10386532;28;84289;-51
2022/04/12 12:36:49;;;;;;;;;;;26.90;99.90;;;;;;10393555;28;85227;-51
2022/04/12 12:41:54;;;;;;;;;;;27.30;99.90;;;;;;10353095;28;84898;-52
2022/04/12 12:46:56;;;;;;;;;;;27.50;99.90;;;;;;10368340;28;84247;-56
2022/04/12 12:51:57;;;;;;;;;;;27.80;99.90;;;;;;10370556;28;85269;-51
2022/04/12 12:56:57;;;;;;;;;;;27.50;99.90;;;;;;10351972;28;85014;-54
2022/04/12 13:02:05;;;;;;;;;;;27.10;99.90;;;;;;10368675;28;93794;-52
2022/04/12 13:07:06;;;;;;;;;;;26.90;99.90;;;;;;10370177;28;85081;-51
2022/04/12 13:12:08;;;;;;;;;;;26.50;99.90;;;;;;10370145;28;84718;-51
2022/04/12 13:17:08;;;;;;;;;;;26.10;99.90;;;;;;10350145;28;86249;-52
2022/04/12 13:22:12;;;;;;;;;;;25.40;99.90;;;;;;10364847;28;84495;-50
2022/04/12 13:27:13;;;;;;;;;;;24.80;99.90;;;;;;10347172;28;86133;-52
2022/04/12 13:32:13;;;;;;;;;;;24.60;99.90;;;;;;10366709;28;85300;-53
2022/04/12 13:37:14;;;;;;;;;;;24.40;99.90;;;;;;10324066;28;83993;-50
2022/04/12 13:42:14;;;;;;;;;;;24.20;99.90;;;;;;10327078;28;84864;-49
2022/04/12 13:47:16;;;;;;;;;;;24.00;99.90;;;;;;10362515;28;84918;-48
2022/04/12 13:52:17;;;;;;;;;;;23.70;99.90;;;;;;10347125;28;86969;-51
2022/04/12 13:57:18;;;;;;;;;;;23.80;99.90;;;;;;10364148;28;84111;-48
2022/04/12 14:02:19;;;;;;;;;;;24.60;99.90;;;;;;10352857;28;84961;-51
2022/04/12 14:07:22;;;;;;;;;;;24.70;99.90;;;;;;10323882;28;84251;-50
2022/04/12 14:12:23;;;;;;;;;;;24.70;99.90;;;;;;10324307;28;84278;-45
2022/04/12 14:17:23;;;;;;;;;;;25.30;99.90;;;;;;10310370;22;1087325;-53
2022/04/12 14:22:25;;;;;;;;;;;25.50;99.90;;;;;;10325589;28;85859;-52
2022/04/12 14:27:25;;;;;;;;;;;25.40;99.90;;;;;;10326469;28;84406;-49
2022/04/12 14:32:26;;;;;;;;;;;25.20;99.90;;;;;;10326003;28;84236;-49
2022/04/12 14:37:26;;;;;;;;;;;25.20;99.90;;;;;;10307207;28;86091;-52
2022/04/12 14:42:27;;;;;;;;;;;24.80;99.90;;;;;;10326033;28;86058;-50
2022/04/12 14:47:28;;;;;;;;;;;24.40;99.90;;;;;;10325837;28;84028;-51
2022/04/12 14:52:28;;;;;;;;;;;23.90;99.90;;;;;;10326053;28;84723;-51
2022/04/12 14:57:30;;;;;;;;;;;23.70;99.90;;;;;;10330426;28;84345;-53
2022/04/12 15:02:31;;;;;;;;;;;23.70;99.90;;;;;;10333646;28;84998;-51
2022/04/12 15:07:32;;;;;;;;;;;23.60;99.90;;;;;;10331622;28;84976;-51
2022/04/12 15:12:33;;;;;;;;;;;23.80;32.00;;;;;;10314208;28;86932;-53
2022/04/12 15:17:33;;;;;;;;;;;23.80;99.90;;;;;;10331011;28;84143;-53
2022/04/12 15:22:34;;;;;;;;;;;23.50;69.90;;;;;;10332126;28;84218;-49
2022/04/12 15:27:35;;;;;;;;;;;23.50;22.70;;;;;;10330375;28;85293;-51
2022/04/12 15:32:36;;;;;;;;;;;23.50;1.00;;;;;;10331530;28;84207;-54
2022/04/12 15:37:37;;;;;;;;;;;23.40;1.00;;;;;;10363956;28;84143;-50
2022/04/12 15:42:38;;;;;;;;;;;23.40;1.00;;;;;;10372790;28;84742;-49
2022/04/12 15:47:39;;;;;;;;;;;23.30;1.00;;;;;;10329616;28;84821;-48
2022/04/12 15:52:40;;;;;;;;;;;23.30;1.00;;;;;;10330705;28;85319;-51
2022/04/12 15:57:40;;;;;;;;;;;23.10;1.00;;;;;;10330087;28;84405;-50
2022/04/12 16:02:42;;;;;;;;;;;22.90;1.00;;;;;;10312539;28;87210;-50
2022/04/12 16:07:47;;;;;;;;;;;22.70;1.00;;;;;;10329167;28;84084;-52
2022/04/12 16:12:48;;;;;;;;;;;22.70;1.00;;;;;;10331293;28;84211;-49
2022/04/12 16:17:48;;;;;;;;;;;22.60;1.00;;;;;;10296929;28;86593;-52
2022/04/12 16:22:49;;;;;;;;;;;22.70;1.00;;;;;;10330526;28;84214;-49
2022/04/12 16:27:54;;;;;;;;;;;22.60;1.00;;;;;;10328409;28;84172;-50
2022/04/12 16:32:55;;;;;;;;;;;22.50;1.00;;;;;;10328892;28;85088;-50
2022/04/12 16:38:00;;;;;;;;;;;22.40;1.00;;;;;;10319638;28;85423;-50
2022/04/12 16:43:01;;;;;;;;;;;22.20;1.00;;;;;;10328101;28;85369;-49
2022/04/12 16:48:01;;;;;;;;;;;22.10;1.00;;;;;;10326708;28;85120;-51
2022/04/12 16:53:02;;;;;;;;;;;22.00;1.00;;;;;;10328018;28;85737;-55
2022/04/12 16:58:03;;;;;;;;;;;21.90;1.00;;;;;;10327789;28;84352;-52
2022/04/12 17:03:05;;;;;;;;;;;21.70;1.00;;;;;;10328884;28;84266;-52
2022/04/12 17:08:05;;;;;;;;;;;21.70;1.00;;;;;;10325735;28;85231;-52
2022/04/12 17:13:06;;;;;;;;;;;21.60;1.00;;;;;;10323287;28;84875;-51
2022/04/12 17:18:06;;;;;;;;;;;21.50;1.00;;;;;;10306947;28;84307;-54
2022/04/12 17:23:07;;;;;;;;;;;21.40;1.00;;;;;;10326909;28;84967;-55
2022/04/12 17:28:07;;;;;;;;;;;21.30;1.00;;;;;;10307823;28;84901;-54
2022/04/12 17:33:08;;;;;;;;;;;21.20;1.00;;;;;;10327272;28;84971;-51
2022/04/12 17:38:09;;;;;;;;;;;21.10;1.00;;;;;;10325376;28;84808;-51
2022/04/12 17:43:09;;;;;;;;;;;21.00;1.00;;;;;;10323506;28;84337;-50
2022/04/12 17:48:10;;;;;;;;;;;20.90;1.00;;;;;;10318136;28;84533;-51
2022/04/12 17:53:11;;;;;;;;;;;20.80;1.00;;;;;;10316372;28;84760;-53
2022/04/12 17:58:11;;;;;;;;;;;20.70;1.00;;;;;;10309914;28;84270;-52
2022/04/12 18:03:12;;;;;;;;;;;20.60;1.00;;;;;;10323219;28;85136;-48
2022/04/12 18:08:13;;;;;;;;;;;20.40;1.00;;;;;;10321249;28;84793;-48
2022/04/12 18:13:13;;;;;;;;;;;20.30;1.00;;;;;;10308439;28;85050;-51
2022/04/12 18:18:14;;;;;;;;;;;20.10;1.00;;;;;;10318712;28;84830;-55
2022/04/12 18:23:15;;;;;;;;;;;20.00;1.00;;;;;;10313168;28;84429;-55
2022/04/12 18:28:15;;;;;;;;;;;19.90;1.00;;;;;;10329775;28;84980;-52
2022/04/12 18:33:16;;;;;;;;;;;19.80;1.00;;;;;;10346016;28;84760;-50
2022/04/12 18:38:16;;;;;;;;;;;19.60;1.00;;;;;;10344090;28;84970;-50
2022/04/12 18:43:18;;;;;;;;;;;19.40;1.00;;;;;;10331194;28;85439;-52
2022/04/12 18:48:21;;;;;;;;;;;19.40;1.00;;;;;;10337607;28;85202;-51
2022/04/12 18:53:21;;;;;;;;;;;19.20;1.00;;;;;;10306657;28;84884;-54
2022/04/12 18:58:22;;;;;;;;;;;19.20;1.00;;;;;;10350056;28;84854;-53
2022/04/12 19:03:23;;;;;;;;;;;19.00;1.00;;;;;;10326080;28;84410;-53
2022/04/12 19:08:24;;;;;;;;;;;18.90;26.30;;;;;;10299636;28;85583;-54
2022/04/12 19:13:24;;;;;;;;;;;18.80;89.40;;;;;;10327710;28;84884;-54
2022/04/12 19:18:25;;;;;;;;;;;18.70;99.90;;;;;;10329539;28;84294;-56
2022/04/12 19:23:26;;;;;;;;;;;18.60;99.90;;;;;;10315570;28;84284;-54
2022/04/12 19:28:26;;;;;;;;;;;18.50;99.90;;;;;;10307092;28;87075;-52
2022/04/12 19:33:28;;;;;;;;;;;18.30;99.90;;;;;;10329645;28;84300;-52
2022/04/12 19:38:28;;;;;;;;;;;18.20;1.00;;;;;;10330333;28;85668;-52
2022/04/12 19:43:29;;;;;;;;;;;18.10;1.00;;;;;;10328352;28;84573;-49
2022/04/12 19:48:31;;;;;;;;;;;18.00;1.00;;;;;;10330991;28;84812;-54
2022/04/12 19:53:32;;;;;;;;;;;17.90;1.00;;;;;;10338699;28;85061;-55
2022/04/12 19:58:32;;;;;;;;;;;17.80;99.90;;;;;;10332307;28;85365;-52
2022/04/12 20:03:40;;;;;;;;;;;17.70;1.00;;;;;;10331637;28;85753;-55
2022/04/12 20:08:41;;;;;;;;;;;17.60;1.00;;;;;;10334867;28;85332;-51
2022/04/12 20:13:42;;;;;;;;;;;17.50;2.20;;;;;;10332091;28;84870;-53
2022/04/12 20:18:43;;;;;;;;;;;17.50;99.90;;;;;;10336336;22;86212;-49
2022/04/12 20:23:43;;;;;;;;;;;17.40;99.90;;;;;;10393403;28;84821;-52
2022/04/12 20:28:44;;;;;;;;;;;17.30;1.00;;;;;;10388806;28;84838;-54
2022/04/12 20:33:44;;;;;;;;;;;17.20;1.00;;;;;;10393341;28;84668;-51
2022/04/12 20:38:45;;;;;;;;;;;17.10;1.00;;;;;;10388982;28;84245;-54
2022/04/12 20:43:46;;;;;;;;;;;17.10;1.00;;;;;;10399081;28;84913;-51
2022/04/12 20:48:46;;;;;;;;;;;17.00;1.00;;;;;;10412695;28;84786;-49
2022/04/12 20:53:47;;;;;;;;;;;16.90;1.00;;;;;;10413184;28;84207;-51
2022/04/12 20:58:47;;;;;;;;;;;16.90;99.90;;;;;;10396128;28;85509;-49
2022/04/12 21:03:49;;;;;;;;;;;16.80;99.90;;;;;;10394904;28;86476;-50
2022/04/12 21:08:49;;;;;;;;;;;16.70;99.90;;;;;;10409144;28;84228;-50
2022/04/12 21:13:50;;;;;;;;;;;16.60;1.00;;;;;;10420793;28;87997;-49
2022/04/12 21:18:50;;;;;;;;;;;16.50;1.00;;;;;;10405563;28;84657;-52
2022/04/12 21:23:51;;;;;;;;;;;16.50;1.00;;;;;;10423277;28;84109;-56
2022/04/12 21:28:52;;;;;;;;;;;16.40;24.10;;;;;;10415154;28;84898;-51
2022/04/12 21:33:52;;;;;;;;;;;16.30;99.90;;;;;;10381384;28;84872;-52
2022/04/12 21:38:53;;;;;;;;;;;16.30;99.90;;;;;;10410063;28;85398;-52
2022/04/12 21:43:53;;;;;;;;;;;16.30;99.90;;;;;;10411856;28;84749;-50
2022/04/12 21:48:56;;;;;;;;;;;16.20;99.90;;;;;;10407733;28;84517;-48
2022/04/12 21:53:57;;;;;;;;;;;16.20;99.90;;;;;;10393178;28;84922;-49
2022/04/12 21:58:57;;;;;;;;;;;16.20;99.90;;;;;;10397663;28;84128;-46
2022/04/12 22:03:58;;;;;;;;;;;16.20;99.90;;;;;;10387446;28;85330;-54
2022/04/12 22:08:59;;;;;;;;;;;16.30;99.90;;;;;;10404183;28;84121;-52
2022/04/12 22:13:59;;;;;;;;;;;16.30;99.90;;;;;;10376525;28;84594;-47
2022/04/12 22:19:00;;;;;;;;;;;16.30;87.30;;;;;;10386500;28;85037;-52
2022/04/12 22:24:01;;;;;;;;;;;16.30;63.90;;;;;;10417721;28;84143;-52
2022/04/12 22:29:02;;;;;;;;;;;16.30;99.90;;;;;;10403339;28;84970;-51
2022/04/12 22:34:04;;;;;;;;;;;16.20;99.90;;;;;;10411320;28;84766;-49
2022/04/12 22:39:05;;;;;;;;;;;16.30;99.90;;;;;;10415764;28;84216;-50
2022/04/12 22:44:06;;;;;;;;;;;16.30;99.90;;;;;;10416848;28;84884;-52
2022/04/12 22:49:06;;;;;;;;;;;16.30;41.70;;;;;;10403050;28;84088;-51
2022/04/12 22:54:07;;;;;;;;;;;16.30;99.90;;;;;;10375112;28;84915;-49
2022/04/12 22:59:07;;;;;;;;;;;16.30;99.90;;;;;;10385791;28;89725;-51
2022/04/12 23:04:08;;;;;;;;;;;16.30;99.90;;;;;;10398206;28;85021;-51
2022/04/12 23:09:09;;;;;;;;;;;16.30;1.00;;;;;;10401954;28;84161;-56
2022/04/12 23:14:09;;;;;;;;;;;16.20;1.00;;;;;;10374638;28;84384;-51
2022/04/12 23:19:10;;;;;;;;;;;16.20;1.00;;;;;;10381425;28;87767;-52
2022/04/12 23:24:11;;;;;;;;;;;16.20;1.00;;;;;;10415590;28;84106;-49
2022/04/12 23:29:11;;;;;;;;;;;16.10;99.90;;;;;;10401353;28;84900;-48
2022/04/12 23:34:12;;;;;;;;;;;16.10;99.90;;;;;;10373281;28;84859;-47
2022/04/12 23:39:13;;;;;;;;;;;16.00;1.00;;;;;;10384159;28;85083;-53
2022/04/12 23:44:14;;;;;;;;;;;16.00;1.00;;;;;;10414673;28;84264;-50
2022/04/12 23:49:15;;;;;;;;;;;16.00;1.00;;;;;;10376703;28;84362;-53
2022/04/12 23:54:20;;;;;;;;;;;15.90;99.90;;;;;;10414633;28;84894;-55
2022/04/12 23:59:22;;;;;;;;;;;15.90;99.90;;;;;;10399118;28;84772;-48
